Terminal Aerodrome Forecast
Issued by NWS

Home | Current Version | Previous Version | Graphics & Text | Print | Product List | Glossary On
Versions: 1 2 3 4 5 6 7 8 9 10 11 12 13 14 15 16 17 18
233
FTUS43 KGRB 241511 AAA
TAFCWA
TAF AMD
KCWA 241511Z 2415/2512 03013G21KT 3/4SM -SN SCT004 OVC010
      TEMPO 2415/2418 4SM -FZDZSN BR BKN004
     FM241800 01017G26KT 2SM -SN OVC010
     FM250300 36012G22KT 3SM -SN OVC015
     FM250600 35012G22KT 6SM -SN OVC020=

USA.gov is the U.S. government's official web portal to all federal, state and local government web resources and services.